createdAt,value
2023-02-15T00:00:26.473Z,2.84
2023-02-15T00:01:27.972Z,3.10
2023-02-15T00:02:29.454Z,3.01
2023-02-15T00:03:30.954Z,3.42
2023-02-15T00:04:47.571Z,3.56
2023-02-15T00:05:49.425Z,3.78
2023-02-15T00:06:50.947Z,3.90
2023-02-15T00:07:52.426Z,4.03
2023-02-15T00:08:54.883Z,3.72
2023-02-15T00:09:56.524Z,3.88
2023-02-15T00:11:12.593Z,3.55
2023-02-15T00:12:14.182Z,3.68
2023-02-15T00:13:15.667Z,3.77
2023-02-15T00:14:23.795Z,3.78
2023-02-15T00:15:26.972Z,3.91
2023-02-15T00:16:28.601Z,3.88
2023-02-15T00:17:30.161Z,3.74
2023-02-15T00:18:31.741Z,3.64
2023-02-15T00:19:33.245Z,3.69
2023-02-15T00:20:34.844Z,3.79
2023-02-15T00:21:36.722Z,4.01
2023-02-15T00:22:38.257Z,4.22
2023-02-15T00:23:39.762Z,4.38
2023-02-15T00:24:41.246Z,4.48
2023-02-15T00:25:42.780Z,4.61
2023-02-15T00:26:44.472Z,4.63
2023-02-15T00:27:45.963Z,4.73
2023-02-15T00:28:47.564Z,4.69
2023-02-15T00:29:49.185Z,4.71
2023-02-15T00:30:50.864Z,4.74
2023-02-15T00:31:53.144Z,4.74
2023-02-15T00:32:54.742Z,4.81
2023-02-15T00:33:56.251Z,4.80
2023-02-15T00:34:57.748Z,4.60
2023-02-15T00:36:00.348Z,4.51
2023-02-15T00:37:02.067Z,4.47
2023-02-15T00:38:03.567Z,4.61
2023-02-15T00:39:05.658Z,4.68
2023-02-15T00:40:08.184Z,4.68
2023-02-15T00:41:09.889Z,4.63
2023-02-15T00:42:11.390Z,4.76
2023-02-15T00:43:12.888Z,4.86
2023-02-15T00:44:14.757Z,4.92
2023-02-15T00:45:17.393Z,4.88
2023-02-15T00:46:19.051Z,4.89
2023-02-15T00:47:20.557Z,4.96
2023-02-15T00:48:22.237Z,4.92
2023-02-15T00:49:23.762Z,4.96
2023-02-15T00:50:25.334Z,4.91
2023-02-15T00:51:26.887Z,4.97
2023-02-15T00:52:28.408Z,4.92
2023-02-15T00:53:29.956Z,4.92
2023-02-15T00:54:31.442Z,4.88
2023-02-15T00:55:33.029Z,4.77
2023-02-15T00:56:34.696Z,4.78
2023-02-15T00:57:36.211Z,4.90
2023-02-15T00:58:37.779Z,4.95
2023-02-15T00:59:39.339Z,4.94
2023-02-15T01:00:41.343Z,4.96
2023-02-15T01:01:42.867Z,5.04
2023-02-15T01:02:44.373Z,4.95
2023-02-15T01:03:47.474Z,4.83
2023-02-15T01:04:48.934Z,5.14
2023-02-15T01:05:50.389Z,5.29
2023-02-15T01:06:51.741Z,5.35
2023-02-15T01:07:54.495Z,5.19
2023-02-15T01:08:56.082Z,5.31
2023-02-15T01:09:57.590Z,5.18
2023-02-15T01:11:04.706Z,4.80
2023-02-15T01:12:06.294Z,4.80
2023-02-15T01:13:07.901Z,4.80
2023-02-15T01:14:09.427Z,4.81
2023-02-15T01:15:11.087Z,4.89
2023-02-15T01:16:12.653Z,4.92
2023-02-15T01:17:14.212Z,4.79
2023-02-15T01:18:15.702Z,4.78
2023-02-15T01:19:17.167Z,4.80
2023-02-15T01:20:22.271Z,4.91
2023-02-15T01:21:24.824Z,4.98
2023-02-15T01:22:26.321Z,4.82
2023-02-15T01:23:27.808Z,4.87
2023-02-15T01:24:29.591Z,4.74
2023-02-15T01:25:31.114Z,4.67
2023-02-15T01:26:32.669Z,4.67
2023-02-15T01:27:34.199Z,4.46
2023-02-15T01:28:35.888Z,4.39
2023-02-15T01:29:37.420Z,4.55
2023-02-15T01:30:38.939Z,4.69
2023-02-15T01:31:40.684Z,4.77
2023-02-15T01:32:42.635Z,4.78
2023-02-15T01:33:44.224Z,4.58
2023-02-15T01:34:45.722Z,4.62
2023-02-15T01:35:47.264Z,4.34
2023-02-15T01:36:49.206Z,4.19
2023-02-15T01:37:50.703Z,4.33
2023-02-15T01:38:52.216Z,4.37
2023-02-15T01:39:54.854Z,4.45
2023-02-15T01:41:19.229Z,4.41
2023-02-15T01:42:26.554Z,4.47
2023-02-15T01:43:43.598Z,4.49
2023-02-15T01:44:59.209Z,4.41
2023-02-15T01:46:01.097Z,4.46
2023-02-15T01:47:02.867Z,4.41
2023-02-15T01:48:05.300Z,4.48
2023-02-15T01:49:15.324Z,4.56
2023-02-15T01:50:21.271Z,4.72
2023-02-15T01:51:24.194Z,4.72
2023-02-15T01:52:25.703Z,4.78
2023-02-15T01:53:30.645Z,4.66
2023-02-15T01:54:33.579Z,4.69
2023-02-15T01:55:43.538Z,4.73
2023-02-15T01:56:45.022Z,4.92
2023-02-15T01:57:46.706Z,4.87
2023-02-15T01:58:48.661Z,4.79
2023-02-15T01:59:53.100Z,4.76
2023-02-15T02:00:55.050Z,4.76
2023-02-15T02:01:57.417Z,4.64
2023-02-15T02:02:59.152Z,4.70
2023-02-15T02:04:15.208Z,4.69
2023-02-15T02:05:16.789Z,4.79
2023-02-15T02:06:18.741Z,4.79
2023-02-15T02:07:21.443Z,4.62
2023-02-15T02:08:22.936Z,4.23
2023-02-15T02:09:24.560Z,3.97
2023-02-15T02:10:26.131Z,3.34
2023-02-15T02:11:27.656Z,3.25
2023-02-15T02:12:29.276Z,3.54
2023-02-15T02:13:30.756Z,3.73
2023-02-15T02:14:32.226Z,3.78
2023-02-15T02:15:54.773Z,3.55
2023-02-15T02:17:00.026Z,3.86
2023-02-15T02:18:09.080Z,4.02
2023-02-15T02:19:23.838Z,4.20
2023-02-15T02:20:40.239Z,4.29
2023-02-15T02:21:49.002Z,4.25
2023-02-15T02:23:09.121Z,3.84
2023-02-15T02:24:31.568Z,4.07
2023-02-15T02:25:57.344Z,4.30
2023-02-15T02:27:23.236Z,4.23
2023-02-15T02:28:57.479Z,4.17
2023-02-15T02:30:19.248Z,3.99
2023-02-15T02:31:42.004Z,4.11
2023-02-15T02:33:25.995Z,4.23
2023-02-15T02:34:31.208Z,4.41
2023-02-15T02:35:41.520Z,4.34
2023-02-15T02:37:09.788Z,4.22
2023-02-15T02:38:46.075Z,4.23
2023-02-15T02:40:05.157Z,4.12
2023-02-15T02:41:21.603Z,4.19
2023-02-15T02:42:36.285Z,3.98
2023-02-15T02:43:52.427Z,3.92
2023-02-15T02:45:04.194Z,3.93
2023-02-15T02:46:12.885Z,3.98
2023-02-15T02:47:30.925Z,4.03
2023-02-15T02:48:33.726Z,4.28
2023-02-15T02:49:40.070Z,4.25
2023-02-15T02:50:41.786Z,4.12
2023-02-15T02:51:43.453Z,3.75
2023-02-15T02:52:49.349Z,3.74
2023-02-15T02:53:53.665Z,3.76
2023-02-15T02:54:55.752Z,3.85
2023-02-15T02:56:03.980Z,3.87
2023-02-15T02:57:06.988Z,3.69
2023-02-15T02:58:41.658Z,3.91
2023-02-15T02:59:43.287Z,3.71
2023-02-15T03:00:56.485Z,3.81
2023-02-15T03:02:07.153Z,3.96
2023-02-15T03:03:12.662Z,3.85
2023-02-15T03:04:22.855Z,3.63
2023-02-15T03:05:26.199Z,3.57
2023-02-15T03:06:37.509Z,3.24
2023-02-15T03:07:38.996Z,3.57
2023-02-15T03:08:44.313Z,3.44
2023-02-15T03:09:47.147Z,3.58
2023-02-15T03:10:50.055Z,3.43
2023-02-15T03:11:51.550Z,3.48
2023-02-15T03:12:53.124Z,3.38
2023-02-15T03:13:54.620Z,3.57
2023-02-15T03:15:20.741Z,3.53
2023-02-15T03:16:28.134Z,3.77
2023-02-15T03:17:32.694Z,3.57
2023-02-15T03:18:39.287Z,3.54
2023-02-15T03:19:40.791Z,3.81
2023-02-15T03:20:42.324Z,3.96
2023-02-15T03:21:50.472Z,3.66
2023-02-15T03:23:00.771Z,3.76
2023-02-15T03:24:16.162Z,3.53
2023-02-15T03:25:21.085Z,3.65
2023-02-15T03:26:22.753Z,3.90
2023-02-15T03:27:26.201Z,3.92
2023-02-15T03:28:33.058Z,4.09
2023-02-15T03:29:34.896Z,4.24
2023-02-15T03:30:37.403Z,4.25
2023-02-15T03:31:41.018Z,4.35
2023-02-15T03:32:42.666Z,4.02
2023-02-15T03:33:51.070Z,4.03
2023-02-15T03:34:52.624Z,4.16
2023-02-15T03:36:07.976Z,4.19
2023-02-15T03:37:12.439Z,4.49
2023-02-15T03:38:14.800Z,4.52
2023-02-15T03:39:18.456Z,4.39
2023-02-15T03:41:10.680Z,4.51
2023-02-15T03:42:17.536Z,4.77
2023-02-15T03:43:40.168Z,4.63
2023-02-15T03:45:11.890Z,4.51
2023-02-15T03:46:44.186Z,4.46
2023-02-15T03:47:47.597Z,4.40
2023-02-15T03:48:57.453Z,3.98
2023-02-15T03:50:25.627Z,4.17
2023-02-15T03:51:34.912Z,4.42
2023-02-15T03:52:36.443Z,4.51
2023-02-15T03:53:37.959Z,4.43
2023-02-15T03:54:46.787Z,4.17
2023-02-15T03:55:51.774Z,4.12
2023-02-15T03:57:13.248Z,4.20
2023-02-15T03:58:33.113Z,4.65
2023-02-15T03:59:53.132Z,4.59
2023-02-15T04:01:17.792Z,4.40
2023-02-15T04:02:22.710Z,3.91
2023-02-15T04:03:38.082Z,3.93
2023-02-15T04:04:42.152Z,4.15
2023-02-15T04:05:44.781Z,4.20
2023-02-15T04:06:46.297Z,4.20
2023-02-15T04:07:47.811Z,4.23
2023-02-15T04:09:07.810Z,3.75
2023-02-15T04:10:28.044Z,3.91
2023-02-15T04:11:29.545Z,4.01
2023-02-15T04:12:31.709Z,3.91
2023-02-15T04:13:34.317Z,3.14
2023-02-15T04:14:54.399Z,3.46
2023-02-15T04:16:06.375Z,3.19
2023-02-15T04:17:09.087Z,3.51
2023-02-15T04:18:10.574Z,3.70
2023-02-15T04:19:30.842Z,3.79
2023-02-15T04:20:51.184Z,3.80
2023-02-15T04:22:11.284Z,3.37
2023-02-15T04:23:31.447Z,3.15
2023-02-15T04:24:51.554Z,3.41
2023-02-15T04:25:53.053Z,3.33
2023-02-15T04:26:54.758Z,3.36
2023-02-15T04:27:56.305Z,2.66
2023-02-15T04:28:57.828Z,2.69
2023-02-15T04:29:59.376Z,2.95
2023-02-15T04:31:00.873Z,3.11
2023-02-15T04:32:03.312Z,2.52
2023-02-15T04:33:04.886Z,2.88
2023-02-15T04:34:06.392Z,2.71
2023-02-15T04:35:08.511Z,2.99
2023-02-15T04:36:10.047Z,3.11
2023-02-15T04:37:11.601Z,3.12
2023-02-15T04:38:13.140Z,3.28
2023-02-15T04:39:15.394Z,3.22
2023-02-15T04:40:19.341Z,3.34
2023-02-15T04:41:21.225Z,3.47
2023-02-15T04:42:23.043Z,3.46
2023-02-15T04:43:24.576Z,3.57
2023-02-15T04:44:26.082Z,3.13
2023-02-15T04:45:28.194Z,3.13
2023-02-15T04:46:29.836Z,3.19
2023-02-15T04:47:31.694Z,3.10
2023-02-15T04:48:33.257Z,3.09
2023-02-15T04:49:34.900Z,3.22
2023-02-15T04:50:36.363Z,3.01
2023-02-15T04:51:37.917Z,3.21
2023-02-15T04:52:39.638Z,3.37
2023-02-15T04:53:41.139Z,3.52
2023-02-15T04:54:42.652Z,3.59
2023-02-15T04:55:44.246Z,3.55
2023-02-15T04:56:45.777Z,3.79
2023-02-15T04:57:47.312Z,3.52
2023-02-15T04:58:48.862Z,3.76
2023-02-15T04:59:50.393Z,3.33
2023-02-15T05:00:52.622Z,3.28
2023-02-15T05:01:54.237Z,3.34
2023-02-15T05:02:56.029Z,3.44
2023-02-15T05:03:57.825Z,3.44
2023-02-15T05:04:59.327Z,3.54
2023-02-15T05:06:01.086Z,3.58
2023-02-15T05:07:02.781Z,3.37
2023-02-15T05:08:04.697Z,2.73
2023-02-15T05:09:06.188Z,3.21
2023-02-15T05:10:08.168Z,3.34
2023-02-15T05:11:09.682Z,3.38
2023-02-15T05:12:11.200Z,3.43
2023-02-15T05:13:13.064Z,3.39
2023-02-15T05:14:14.602Z,3.45
2023-02-15T05:15:16.093Z,2.54
2023-02-15T05:16:18.755Z,3.06
2023-02-15T05:17:20.292Z,3.25
2023-02-15T05:18:23.645Z,3.28
2023-02-15T05:19:25.528Z,3.41
2023-02-15T05:20:27.031Z,3.40
2023-02-15T05:21:28.616Z,3.45
2023-02-15T05:22:30.376Z,3.38
2023-02-15T05:23:31.955Z,3.48
2023-02-15T05:24:52.286Z,3.52
2023-02-15T05:26:12.583Z,3.68
2023-02-15T05:27:33.012Z,3.62
2023-02-15T05:28:35.059Z,3.53
2023-02-15T05:29:36.633Z,3.70
2023-02-15T05:30:38.568Z,3.75
2023-02-15T05:31:40.399Z,3.84
2023-02-15T05:32:42.185Z,3.89
2023-02-15T05:33:44.341Z,3.89
2023-02-15T05:34:45.829Z,4.08
2023-02-15T05:35:47.313Z,4.08
2023-02-15T05:36:48.828Z,3.93
2023-02-15T05:37:50.319Z,3.81
2023-02-15T05:38:52.207Z,3.87
2023-02-15T05:39:53.695Z,3.90
2023-02-15T05:40:55.222Z,3.75
2023-02-15T05:42:00.231Z,3.67
2023-02-15T05:43:01.747Z,3.65
2023-02-15T05:44:03.265Z,3.84
2023-02-15T05:45:05.137Z,3.83
2023-02-15T05:46:06.738Z,3.90
2023-02-15T05:47:08.476Z,3.86
2023-02-15T05:48:09.957Z,3.84
2023-02-15T05:49:11.561Z,3.73
2023-02-15T05:50:13.084Z,3.76
2023-02-15T05:51:15.977Z,3.73
2023-02-15T05:52:17.454Z,3.78
2023-02-15T05:53:18.978Z,3.82
2023-02-15T05:54:20.835Z,3.74
2023-02-15T05:55:22.617Z,3.79
2023-02-15T05:56:24.148Z,3.88
2023-02-15T05:57:25.632Z,3.99
2023-02-15T05:58:28.009Z,4.07
2023-02-15T05:59:29.545Z,4.01
2023-02-15T06:00:31.049Z,3.92
2023-02-15T06:01:32.550Z,3.95
2023-02-15T06:02:37.353Z,3.94
2023-02-15T06:03:39.002Z,4.04
2023-02-15T06:04:40.593Z,4.10
2023-02-15T06:05:42.067Z,4.05
2023-02-15T06:06:43.559Z,4.12
2023-02-15T06:07:45.783Z,4.10
2023-02-15T06:08:47.264Z,4.00
2023-02-15T06:09:49.235Z,4.06
2023-02-15T06:10:50.781Z,4.10
2023-02-15T06:11:52.328Z,3.97
2023-02-15T06:12:53.831Z,4.11
2023-02-15T06:13:55.316Z,4.05
2023-02-15T06:14:56.858Z,4.15
2023-02-15T06:15:58.657Z,4.13
2023-02-15T06:17:00.211Z,3.98
2023-02-15T06:18:01.819Z,4.01
2023-02-15T06:19:03.807Z,3.51
2023-02-15T06:20:06.037Z,3.63
2023-02-15T06:21:07.531Z,3.65
2023-02-15T06:22:09.100Z,3.59
2023-02-15T06:23:10.590Z,3.54
2023-02-15T06:24:12.238Z,3.62
2023-02-15T06:25:14.043Z,3.12
2023-02-15T06:26:15.569Z,2.82
2023-02-15T06:27:17.179Z,3.17
2023-02-15T06:28:18.638Z,3.28
2023-02-15T06:29:20.106Z,3.38
2023-02-15T06:30:21.957Z,3.54
2023-02-15T06:31:23.660Z,3.75
2023-02-15T06:32:25.204Z,3.83
2023-02-15T06:33:26.822Z,3.77
2023-02-15T06:34:28.314Z,3.92
2023-02-15T06:35:30.131Z,3.97
2023-02-15T06:36:31.899Z,4.05
2023-02-15T06:37:33.421Z,4.06
2023-02-15T06:38:34.959Z,4.08
2023-02-15T06:39:36.884Z,4.05
2023-02-15T06:40:38.425Z,4.15
2023-02-15T06:41:40.135Z,4.10
2023-02-15T06:42:42.581Z,4.09
2023-02-15T06:43:44.080Z,4.01
2023-02-15T06:44:46.525Z,3.90
2023-02-15T06:45:48.122Z,3.67
2023-02-15T06:46:49.827Z,3.71
2023-02-15T06:47:51.376Z,3.76
2023-02-15T06:48:52.920Z,3.68
2023-02-15T06:49:54.487Z,3.26
2023-02-15T06:50:56.008Z,3.31
2023-02-15T06:51:57.507Z,3.44
2023-02-15T06:52:59.200Z,3.55
2023-02-15T06:54:00.880Z,3.51
2023-02-15T06:55:02.732Z,3.42
2023-02-15T06:56:07.450Z,3.37
2023-02-15T06:57:10.442Z,3.12
2023-02-15T06:58:12.098Z,3.17
2023-02-15T06:59:13.656Z,3.22
2023-02-15T07:00:16.127Z,3.33
2023-02-15T07:01:17.669Z,3.50
2023-02-15T07:02:19.447Z,3.65
2023-02-15T07:03:20.981Z,3.83
2023-02-15T07:04:22.842Z,3.96
2023-02-15T07:05:25.291Z,3.73
2023-02-15T07:06:26.810Z,3.86
2023-02-15T07:07:28.388Z,3.93
2023-02-15T07:08:30.026Z,4.03
2023-02-15T07:09:31.558Z,4.16
2023-02-15T07:10:33.054Z,4.07
2023-02-15T07:11:53.120Z,3.94
2023-02-15T07:12:54.706Z,3.86
2023-02-15T07:13:56.218Z,3.88
2023-02-15T07:14:59.355Z,3.91
2023-02-15T07:16:01.198Z,3.87
2023-02-15T07:17:03.164Z,3.90
2023-02-15T07:18:06.109Z,4.05
2023-02-15T07:19:08.137Z,4.18
2023-02-15T07:20:15.234Z,4.04
2023-02-15T07:21:16.761Z,4.20
2023-02-15T07:22:18.263Z,4.33
2023-02-15T07:23:19.742Z,4.11
2023-02-15T07:24:21.584Z,3.67
2023-02-15T07:25:23.142Z,3.66
2023-02-15T07:26:24.922Z,3.75
2023-02-15T07:27:26.604Z,3.86
2023-02-15T07:28:28.532Z,3.81
2023-02-15T07:29:30.237Z,3.85
2023-02-15T07:30:31.991Z,3.79
2023-02-15T07:31:33.605Z,3.68
2023-02-15T07:32:35.180Z,3.65
2023-02-15T07:33:36.892Z,3.67
2023-02-15T07:34:38.439Z,3.76
2023-02-15T07:35:40.134Z,3.59
2023-02-15T07:36:41.744Z,3.45
2023-02-15T07:37:43.231Z,3.35
2023-02-15T07:38:45.923Z,3.19
2023-02-15T07:39:47.536Z,3.13
2023-02-15T07:40:49.057Z,3.33
2023-02-15T07:41:50.705Z,3.32
2023-02-15T07:42:54.311Z,3.17
2023-02-15T07:43:55.920Z,3.16
2023-02-15T07:44:57.498Z,3.24
2023-02-15T07:46:05.492Z,3.26
2023-02-15T07:47:07.116Z,3.48
2023-02-15T07:48:08.706Z,3.43
2023-02-15T07:49:10.582Z,3.17
2023-02-15T07:50:12.131Z,3.38
2023-02-15T07:51:13.823Z,3.20
2023-02-15T07:52:15.407Z,3.15
2023-02-15T07:53:16.934Z,3.03
2023-02-15T07:54:18.479Z,3.09
2023-02-15T07:55:20.188Z,3.06
2023-02-15T07:56:21.824Z,3.18
2023-02-15T07:57:23.324Z,3.42
2023-02-15T07:58:44.819Z,3.48
2023-02-15T07:59:46.303Z,3.83
2023-02-15T08:01:02.619Z,4.05
2023-02-15T08:02:04.197Z,4.04
2023-02-15T08:03:15.014Z,3.83
2023-02-15T08:04:17.594Z,3.61
2023-02-15T08:05:19.324Z,3.54
2023-02-15T08:06:22.114Z,3.06
2023-02-15T08:07:23.647Z,3.26
2023-02-15T08:08:31.221Z,3.44
2023-02-15T08:09:33.127Z,3.57
2023-02-15T08:10:53.561Z,3.68
2023-02-15T08:11:55.162Z,3.88
2023-02-15T08:12:56.678Z,3.89
2023-02-15T08:14:05.080Z,3.86
2023-02-15T08:15:07.113Z,3.95
2023-02-15T08:16:08.619Z,3.73
2023-02-15T08:17:10.114Z,3.77
2023-02-15T08:18:11.610Z,3.60
2023-02-15T08:19:23.837Z,3.15
2023-02-15T08:20:25.341Z,3.16
2023-02-15T08:21:28.277Z,2.85
2023-02-15T08:22:30.705Z,3.15
2023-02-15T08:23:32.197Z,3.24
2023-02-15T08:24:35.900Z,3.39
2023-02-15T08:25:37.417Z,3.18
2023-02-15T08:26:41.981Z,3.37
2023-02-15T08:27:44.115Z,3.73
2023-02-15T08:28:47.336Z,3.71
2023-02-15T08:29:50.856Z,3.48
2023-02-15T08:30:52.389Z,3.11
2023-02-15T08:31:55.293Z,3.29
2023-02-15T08:32:56.863Z,3.38
2023-02-15T08:33:58.465Z,3.47
2023-02-15T08:35:00.079Z,3.55
2023-02-15T08:36:06.028Z,3.66
2023-02-15T08:37:07.625Z,3.36
2023-02-15T08:38:09.262Z,3.39
2023-02-15T08:39:11.172Z,3.66
2023-02-15T08:40:14.521Z,3.47
2023-02-15T08:41:20.056Z,3.42
2023-02-15T08:42:21.964Z,3.20
2023-02-15T08:43:23.592Z,3.52
2023-02-15T08:44:25.139Z,3.27
2023-02-15T08:45:26.884Z,2.87
2023-02-15T08:46:29.716Z,3.05
2023-02-15T08:47:31.384Z,3.56
2023-02-15T08:48:33.153Z,3.35
2023-02-15T08:49:34.993Z,3.52
2023-02-15T08:50:36.545Z,3.34
2023-02-15T08:51:38.809Z,3.28
2023-02-15T08:52:40.361Z,3.50
2023-02-15T08:53:43.024Z,3.53
2023-02-15T08:54:44.881Z,3.48
2023-02-15T08:55:46.567Z,3.45
2023-02-15T08:56:48.286Z,3.54
2023-02-15T08:57:49.801Z,3.27
2023-02-15T08:58:51.367Z,3.34
2023-02-15T08:59:55.986Z,3.59
2023-02-15T09:00:58.184Z,3.76
2023-02-15T09:01:59.695Z,3.84
2023-02-15T09:03:01.270Z,3.95
2023-02-15T09:04:05.585Z,4.10
2023-02-15T09:05:07.441Z,4.02
2023-02-15T09:06:09.128Z,3.83
2023-02-15T09:07:10.650Z,3.51
2023-02-15T09:08:12.264Z,3.60
2023-02-15T09:09:14.144Z,3.77
2023-02-15T09:10:15.863Z,3.40
2023-02-15T09:11:23.280Z,3.58
2023-02-15T09:12:24.838Z,3.22
2023-02-15T09:13:26.478Z,3.28
2023-02-15T09:14:28.380Z,3.39
2023-02-15T09:15:29.885Z,3.34
2023-02-15T09:16:32.741Z,3.40
2023-02-15T09:17:34.309Z,3.47
2023-02-15T09:18:38.325Z,3.36
2023-02-15T09:19:40.146Z,3.55
2023-02-15T09:20:41.652Z,3.60
2023-02-15T09:21:43.160Z,3.68
2023-02-15T09:22:44.764Z,3.69
2023-02-15T09:23:47.200Z,3.84
2023-02-15T09:24:48.748Z,3.94
2023-02-15T09:25:50.262Z,4.09
2023-02-15T09:26:51.822Z,4.13
2023-02-15T09:27:53.326Z,4.18
2023-02-15T09:28:56.652Z,4.33
2023-02-15T09:29:58.242Z,4.16
2023-02-15T09:31:08.108Z,4.10
2023-02-15T09:32:09.675Z,4.33
2023-02-15T09:33:11.394Z,4.41
2023-02-15T09:34:14.187Z,4.16
2023-02-15T09:35:15.680Z,2.93
2023-02-15T09:36:28.019Z,3.23
2023-02-15T09:37:31.478Z,2.96
2023-02-15T09:38:33.057Z,3.49
2023-02-15T09:39:41.907Z,3.69
2023-02-15T09:40:47.421Z,3.90
2023-02-15T09:42:13.793Z,3.78
2023-02-15T09:43:40.484Z,3.74
2023-02-15T09:45:15.041Z,3.90
2023-02-15T09:46:36.174Z,4.13
2023-02-15T09:47:47.278Z,4.15
2023-02-15T09:48:53.306Z,4.11
2023-02-15T09:50:06.409Z,4.04
2023-02-15T09:51:46.172Z,4.19
2023-02-15T09:53:18.241Z,4.38
2023-02-15T09:54:27.195Z,4.53
2023-02-15T09:55:46.365Z,4.38
2023-02-15T09:57:00.377Z,4.18
2023-02-15T09:58:14.272Z,4.21
2023-02-15T09:59:28.293Z,4.39
2023-02-15T10:00:45.122Z,4.19
2023-02-15T10:01:50.841Z,4.38
2023-02-15T10:03:08.381Z,4.35
2023-02-15T10:04:31.677Z,4.07
2023-02-15T10:05:55.506Z,4.07
2023-02-15T10:07:15.058Z,4.23
2023-02-15T10:08:40.806Z,3.94
2023-02-15T10:09:47.974Z,4.27
2023-02-15T10:10:56.572Z,4.33
2023-02-15T10:12:31.512Z,4.09
2023-02-15T10:13:41.421Z,4.08
2023-02-15T10:14:48.995Z,3.94
2023-02-15T10:15:53.186Z,3.38
2023-02-15T10:17:19.720Z,3.77
2023-02-15T10:18:57.043Z,4.08
2023-02-15T10:20:08.990Z,4.25
2023-02-15T10:21:41.256Z,4.37
2023-02-15T10:23:21.725Z,4.74
2023-02-15T10:24:40.524Z,4.86
2023-02-15T10:26:18.867Z,4.75
2023-02-15T10:27:21.425Z,4.51
2023-02-15T10:28:53.487Z,3.47
2023-02-15T10:30:33.087Z,3.34
2023-02-15T10:31:44.973Z,2.96
2023-02-15T10:33:02.347Z,3.76
2023-02-15T10:34:10.908Z,4.10
2023-02-15T10:35:20.147Z,4.45
2023-02-15T10:36:21.553Z,4.81
2023-02-15T10:37:38.301Z,4.82
2023-02-15T10:38:43.370Z,5.05
2023-02-15T10:40:13.889Z,4.96
2023-02-15T10:41:15.747Z,5.02
2023-02-15T10:42:43.561Z,5.03
2023-02-15T10:44:15.426Z,5.13
2023-02-15T10:45:19.848Z,5.17
2023-02-15T10:46:44.677Z,4.42
2023-02-15T10:47:58.157Z,4.77
2023-02-15T10:49:24.763Z,4.76
2023-02-15T10:50:29.129Z,5.04
2023-02-15T10:52:30.290Z,5.41
2023-02-15T10:53:57.216Z,4.51
2023-02-15T10:55:09.992Z,4.40
2023-02-15T10:56:35.892Z,4.34
2023-02-15T10:57:51.923Z,4.68
2023-02-15T10:59:31.094Z,4.74
2023-02-15T11:00:41.142Z,4.90
2023-02-15T11:01:48.015Z,4.30
2023-02-15T11:03:06.769Z,4.76
2023-02-15T11:04:33.059Z,5.24
2023-02-15T11:06:07.716Z,5.46
2023-02-15T11:07:17.715Z,5.48
2023-02-15T11:08:19.184Z,5.44
2023-02-15T11:09:22.373Z,5.49
2023-02-15T11:10:47.388Z,5.01
2023-02-15T11:11:52.908Z,5.07
2023-02-15T11:12:54.413Z,5.33
2023-02-15T11:13:59.932Z,4.37
2023-02-15T11:15:04.696Z,3.69
2023-02-15T11:16:20.180Z,4.16
2023-02-15T11:17:24.552Z,4.66
2023-02-15T11:18:33.497Z,4.42
2023-02-15T11:19:40.971Z,4.64
2023-02-15T11:21:01.292Z,5.17
2023-02-15T11:22:05.062Z,5.13
2023-02-15T11:23:17.249Z,5.39
2023-02-15T11:24:21.109Z,5.60
2023-02-15T11:25:29.313Z,5.64
2023-02-15T11:26:47.562Z,5.72
2023-02-15T11:27:50.240Z,5.94
2023-02-15T11:29:15.417Z,5.67
2023-02-15T11:30:21.854Z,5.97
2023-02-15T11:31:24.533Z,6.03
2023-02-15T11:32:36.290Z,6.13
2023-02-15T11:33:38.816Z,6.47
2023-02-15T11:34:49.033Z,6.37
2023-02-15T11:35:54.213Z,6.35
2023-02-15T11:36:56.029Z,6.54
2023-02-15T11:38:18.910Z,6.83
2023-02-15T11:39:20.501Z,6.52
2023-02-15T11:40:23.250Z,6.47
2023-02-15T11:41:28.207Z,6.56
2023-02-15T11:42:29.931Z,6.29
2023-02-15T11:43:36.635Z,5.79
2023-02-15T11:44:55.235Z,6.12
2023-02-15T11:45:57.500Z,6.36
2023-02-15T11:46:59.257Z,6.34
2023-02-15T11:48:00.960Z,6.49
2023-02-15T11:49:03.886Z,6.57
2023-02-15T11:50:05.960Z,6.64
2023-02-15T11:51:10.379Z,6.74
2023-02-15T11:52:13.283Z,6.85
2023-02-15T11:53:15.501Z,7.27
2023-02-15T11:54:21.867Z,7.26
2023-02-15T11:55:23.782Z,7.33
2023-02-15T11:56:26.133Z,7.24
2023-02-15T11:57:32.830Z,7.27
2023-02-15T11:58:38.893Z,7.40
2023-02-15T11:59:41.700Z,7.11
2023-02-15T12:00:47.692Z,6.97
2023-02-15T12:01:49.320Z,6.89
2023-02-15T12:02:53.504Z,6.95
2023-02-15T12:04:16.080Z,7.00
2023-02-15T12:05:20.067Z,7.12
2023-02-15T12:06:23.379Z,7.16
2023-02-15T12:07:27.387Z,7.11
2023-02-15T12:08:39.591Z,7.03
2023-02-15T12:09:50.354Z,7.22
2023-02-15T12:10:59.894Z,7.29
2023-02-15T12:12:20.660Z,7.17
2023-02-15T12:13:22.495Z,7.27
2023-02-15T12:14:24.056Z,7.21
2023-02-15T12:15:31.568Z,7.05
2023-02-15T12:16:54.483Z,7.09
2023-02-15T12:17:55.983Z,6.96
2023-02-15T12:18:59.292Z,6.83
2023-02-15T12:20:05.998Z,6.97
2023-02-15T12:21:15.272Z,7.18
2023-02-15T12:22:28.628Z,7.24
2023-02-15T12:23:31.012Z,7.31
2023-02-15T12:24:39.530Z,7.41
2023-02-15T12:25:51.989Z,7.58
2023-02-15T12:27:02.579Z,7.86
2023-02-15T12:28:05.325Z,7.87
2023-02-15T12:29:40.704Z,7.91
2023-02-15T12:30:43.202Z,7.92
2023-02-15T12:31:48.896Z,7.87
2023-02-15T12:32:57.529Z,8.00
2023-02-15T12:33:59.216Z,7.97
2023-02-15T12:35:07.649Z,7.97
2023-02-15T12:36:22.898Z,8.01
2023-02-15T12:37:24.730Z,8.43
2023-02-15T12:38:26.596Z,7.60
2023-02-15T12:39:29.498Z,7.92
2023-02-15T12:40:31.797Z,8.25
2023-02-15T12:41:33.404Z,8.17
2023-02-15T12:42:45.413Z,8.12
2023-02-15T12:43:46.944Z,8.29
2023-02-15T12:44:58.902Z,8.45
2023-02-15T12:46:25.274Z,8.73
2023-02-15T12:47:30.828Z,8.85
2023-02-15T12:48:32.348Z,8.79
2023-02-15T12:49:37.879Z,8.66
2023-02-15T12:50:41.292Z,8.77
2023-02-15T12:51:50.006Z,8.80
2023-02-15T12:52:52.350Z,8.94
2023-02-15T12:53:54.043Z,9.09
2023-02-15T12:54:55.618Z,8.86
2023-02-15T12:55:58.822Z,8.94
2023-02-15T12:57:00.592Z,8.98
2023-02-15T12:58:26.123Z,8.95
2023-02-15T12:59:27.691Z,8.81
2023-02-15T13:00:30.269Z,8.69
2023-02-15T13:01:33.102Z,8.73
2023-02-15T13:02:48.569Z,8.75
2023-02-15T13:04:06.764Z,8.47
2023-02-15T13:05:15.018Z,8.77
2023-02-15T13:06:17.800Z,8.44
2023-02-15T13:07:19.382Z,8.51
2023-02-15T13:08:32.481Z,8.41
2023-02-15T13:09:33.867Z,8.22
2023-02-15T13:10:37.781Z,8.38
2023-02-15T13:11:54.905Z,8.32
2023-02-15T13:13:10.448Z,8.45
2023-02-15T13:14:32.239Z,8.51
2023-02-15T13:15:38.340Z,8.65
2023-02-15T13:16:40.040Z,8.55
2023-02-15T13:17:44.925Z,8.68
2023-02-15T13:18:47.539Z,8.82
2023-02-15T13:19:51.160Z,8.81
2023-02-15T13:20:53.022Z,8.85
2023-02-15T13:21:54.608Z,8.84
2023-02-15T13:23:00.990Z,8.95
2023-02-15T13:24:06.383Z,9.11
2023-02-15T13:25:22.038Z,8.89
2023-02-15T13:26:24.534Z,9.20
2023-02-15T13:27:32.149Z,9.27
2023-02-15T13:28:42.371Z,9.24
2023-02-15T13:29:54.782Z,9.58
2023-02-15T13:30:56.763Z,9.72
2023-02-15T13:32:08.599Z,9.72
2023-02-15T13:33:32.335Z,10.06
2023-02-15T13:34:36.227Z,10.16
2023-02-15T13:36:10.648Z,9.99
2023-02-15T13:37:20.330Z,9.90
2023-02-15T13:38:33.650Z,10.06
2023-02-15T13:40:11.792Z,10.43
2023-02-15T13:41:18.604Z,10.57
2023-02-15T13:42:41.176Z,10.77
2023-02-15T13:44:08.559Z,10.80
2023-02-15T13:45:14.643Z,11.01
2023-02-15T13:46:54.223Z,10.82
2023-02-15T13:48:31.459Z,11.09
2023-02-15T13:49:40.824Z,11.44
2023-02-15T13:50:51.255Z,11.49
2023-02-15T13:52:01.849Z,11.31
2023-02-15T13:53:22.118Z,11.20
2023-02-15T13:54:35.633Z,11.12
2023-02-15T13:55:37.344Z,11.32
2023-02-15T13:57:07.687Z,11.64
2023-02-15T13:58:28.010Z,12.15
2023-02-15T13:59:57.137Z,12.43
2023-02-15T14:01:09.651Z,12.75
2023-02-15T14:02:38.943Z,12.94
2023-02-15T14:03:43.438Z,13.23
2023-02-15T14:04:50.700Z,13.36
2023-02-15T14:06:01.534Z,13.51
2023-02-15T14:07:17.929Z,13.67
2023-02-15T14:08:47.860Z,13.87
2023-02-15T14:10:00.711Z,13.93
2023-02-15T14:11:27.855Z,14.07
2023-02-15T14:12:32.272Z,14.28
2023-02-15T14:13:52.635Z,14.30
2023-02-15T14:15:10.871Z,14.39
2023-02-15T14:16:24.923Z,14.55
2023-02-15T14:17:44.393Z,14.37
2023-02-15T14:19:00.364Z,14.22
2023-02-15T14:20:01.743Z,14.36
2023-02-15T14:21:05.859Z,14.35
2023-02-15T14:22:12.045Z,14.42
2023-02-15T14:23:37.207Z,14.57
2023-02-15T14:25:15.740Z,14.66
2023-02-15T14:26:37.834Z,14.76
2023-02-15T14:28:03.917Z,14.67
2023-02-15T14:29:36.081Z,14.69
2023-02-15T14:30:42.402Z,14.87
2023-02-15T14:31:47.223Z,14.95
2023-02-15T14:32:56.854Z,14.98
2023-02-15T14:33:58.496Z,15.02
2023-02-15T14:35:04.321Z,15.01
2023-02-15T14:36:07.722Z,15.09
2023-02-15T14:37:11.154Z,15.11
2023-02-15T14:38:18.945Z,15.09
2023-02-15T14:40:09.126Z,15.27
2023-02-15T14:41:16.588Z,15.36
2023-02-15T14:42:31.016Z,15.30
2023-02-15T14:44:08.194Z,15.34
2023-02-15T14:45:16.641Z,15.32
2023-02-15T14:46:37.040Z,15.24
2023-02-15T14:47:41.328Z,15.11
2023-02-15T14:48:47.683Z,15.16
2023-02-15T14:49:49.288Z,15.19
2023-02-15T14:50:50.854Z,15.20